Terminal Aerodrome Forecast
Issued by NWS

Home | Current Version | Previous Version | Text Only | Print | Product List | Glossary On
Versions: 1 2 3 4 5 6 7 8 9 10 11 12 13 14 15 16 17 18 19 20 21 22 23 24 25 26 27 28 29 30 31 32 33 34
000
FTUS45 KPSR 211100
TAFIWA
TAF
KIWA 211136Z 2112/2212 14005KT P6SM SCT250
     FM212100 24008KT P6SM SCT080 SCT150 SCT200
      TEMPO 2122/2202 BKN150
     FM220400 13006KT P6SM FEW150 SCT200
      AMD LTD TO CLD VIS AND WIND TIL 211300=

USA.gov is the U.S. government's official web portal to all federal, state and local government web resources and services.